Time;durP1;ratioP1;P1;durP2;ratioP2;P2;SDS_P1;SDS_P2;PMS_P1;PMS_P2;Temp;Humidity;BMP_temperature;BMP_pressure;BME280_temperature;BME280_humidity;BME280_pressure;Samples;Min_cycle;Max_cycle;Signal;HPM_P1;HPM_P2
2023/09/17 00:00:05;;;;;;;20.73;13.07;;;19.50;99.90;;;;;;5021507;28;20030;-57
2023/09/17 00:02:31;;;;;;;23.58;14.27;;;19.50;99.90;;;;;;5022244;28;20472;-60
2023/09/17 00:04:57;;;;;;;29.95;15.50;;;19.70;99.90;;;;;;5021125;28;20032;-58
2023/09/17 00:07:22;;;;;;;20.42;13.73;;;19.70;99.90;;;;;;5024124;28;20058;-60
2023/09/17 00:09:49;;;;;;;19.48;12.73;;;19.80;99.90;;;;;;5023441;28;20029;-55
2023/09/17 00:12:15;;;;;;;20.30;14.55;;;19.80;99.90;;;;;;5021303;28;20021;-59
2023/09/17 00:14:41;;;;;;;27.08;15.05;;;19.90;99.90;;;;;;5021642;28;20056;-57
2023/09/17 00:17:06;;;;;;;23.33;14.05;;;20.00;99.90;;;;;;5022253;28;20071;-60
2023/09/17 00:19:32;;;;;;;18.45;11.80;;;20.00;99.90;;;;;;5023020;28;20484;-58
2023/09/17 00:21:58;;;;;;;21.10;12.73;;;20.10;99.90;;;;;;5023786;28;20034;-59
2023/09/17 00:24:24;;;;;;;25.85;13.45;;;20.10;99.90;;;;;;5022333;28;20033;-55
2023/09/17 00:26:50;;;;;;;16.83;12.13;;;20.10;99.90;;;;;;5019111;28;20400;-61
2023/09/17 00:29:15;;;;;;;24.85;14.25;;;20.10;99.90;;;;;;5023226;28;20034;-58
2023/09/17 00:31:41;;;;;;;18.63;12.00;;;20.10;99.90;;;;;;5018159;28;20100;-55
2023/09/17 00:34:07;;;;;;;16.33;11.60;;;20.00;99.90;;;;;;5023517;28;20040;-58
2023/09/17 00:36:32;;;;;;;17.27;11.55;;;20.00;99.90;;;;;;5020456;28;20017;-60
2023/09/17 00:38:58;;;;;;;14.27;11.10;;;20.10;99.90;;;;;;5022053;28;20038;-58
2023/09/17 00:41:23;;;;;;;17.15;11.98;;;20.10;99.90;;;;;;5024480;28;20453;-59
2023/09/17 00:43:49;;;;;;;14.80;10.57;;;20.00;99.90;;;;;;5017492;28;20099;-58
2023/09/17 00:46:15;;;;;;;19.60;11.23;;;20.00;99.90;;;;;;5022542;28;20032;-60
2023/09/17 00:48:41;;;;;;;19.40;11.15;;;20.00;99.90;;;;;;5016243;28;20411;-58
2023/09/17 00:51:07;;;;;;;17.20;11.98;;;20.00;99.90;;;;;;5020311;28;20040;-56
2023/09/17 00:53:34;;;;;;;20.63;11.60;;;20.00;99.90;;;;;;5024297;28;20042;-60
2023/09/17 00:55:59;;;;;;;21.48;12.65;;;20.00;99.90;;;;;;5014961;28;20026;-55
2023/09/17 00:58:28;;;;;;;16.08;11.07;;;19.90;99.90;;;;;;5022104;28;20045;-58
2023/09/17 01:00:54;;;;;;;21.67;12.32;;;20.00;99.90;;;;;;5017139;28;20093;-58
2023/09/17 01:03:20;;;;;;;19.58;11.88;;;20.00;99.90;;;;;;5019355;28;20539;-56
2023/09/17 01:05:47;;;;;;;15.95;11.30;;;19.90;99.90;;;;;;5017364;28;20037;-58
2023/09/17 01:08:13;;;;;;;21.70;12.75;;;20.00;99.90;;;;;;5021034;28;20408;-60
2023/09/17 01:10:41;;;;;;;18.42;13.07;;;19.90;99.90;;;;;;5022315;28;20108;-57
2023/09/17 01:13:08;;;;;;;19.42;12.95;;;19.90;99.90;;;;;;5019813;28;20032;-57
2023/09/17 01:15:34;;;;;;;20.27;12.38;;;19.90;99.90;;;;;;5020201;28;20069;-58
2023/09/17 01:18:05;;;;;;;19.30;13.25;;;19.90;99.90;;;;;;5017268;28;20056;-60
2023/09/17 01:20:37;;;;;;;20.88;13.00;;;19.90;99.90;;;;;;5026208;28;20026;-58
2023/09/17 01:23:15;;;;;;;17.27;12.57;;;19.80;99.90;;;;;;5022236;28;20049;-59
2023/09/17 01:25:52;;;;;;;15.88;12.15;;;19.80;99.90;;;;;;5014619;28;20022;-57
2023/09/17 01:28:18;;;;;;;21.60;13.13;;;19.80;99.90;;;;;;5027149;28;20060;-58
2023/09/17 01:30:45;;;;;;;17.80;13.07;;;19.70;99.90;;;;;;5025863;28;20017;-58
2023/09/17 01:33:11;;;;;;;20.42;13.90;;;19.70;99.90;;;;;;5025652;28;20029;-60
2023/09/17 01:36:13;;;;;;;19.98;13.20;;;19.70;99.90;;;;;;5024132;28;20802;-61
2023/09/17 01:38:45;;;;;;;21.73;13.38;;;19.70;99.90;;;;;;5015625;28;20026;-58
2023/09/17 01:41:11;;;;;;;25.65;13.70;;;19.60;99.90;;;;;;5017589;28;20053;-60
2023/09/17 01:43:38;;;;;;;19.20;13.20;;;19.50;99.90;;;;;;5031874;28;20056;-60
2023/09/17 01:46:04;;;;;;;20.98;14.02;;;19.60;99.90;;;;;;5021263;28;20026;-57
2023/09/17 01:48:30;;;;;;;19.80;13.60;;;19.60;99.90;;;;;;5019830;28;20483;-57
2023/09/17 01:50:57;;;;;;;23.70;14.43;;;19.50;99.90;;;;;;5017880;28;20030;-59
2023/09/17 01:53:23;;;;;;;19.55;13.70;;;19.50;99.90;;;;;;5015773;28;20105;-57
2023/09/17 01:55:52;;;;;;;21.45;14.10;;;19.50;99.90;;;;;;5020795;28;20056;-55
2023/09/17 01:58:18;;;;;;;24.35;15.68;;;19.50;99.90;;;;;;5015623;28;20496;-56
2023/09/17 02:00:44;;;;;;;23.23;14.63;;;19.50;99.90;;;;;;5017655;28;20024;-53
2023/09/17 02:03:10;;;;;;;20.88;14.70;;;19.60;99.90;;;;;;5013302;28;20018;-55
2023/09/17 02:05:35;;;;;;;22.00;14.38;;;19.60;99.90;;;;;;5021285;28;20592;-60
2023/09/17 02:08:01;;;;;;;24.42;15.98;;;19.60;99.90;;;;;;5022971;28;20022;-60
2023/09/17 02:10:27;;;;;;;25.60;15.48;;;19.60;99.90;;;;;;5021994;28;20025;-58
2023/09/17 02:12:52;;;;;;;27.27;16.65;;;19.60;99.90;;;;;;5019335;28;20029;-59
2023/09/17 02:15:19;;;;;;;29.30;16.40;;;19.60;99.90;;;;;;5020953;28;20247;-54
2023/09/17 02:17:45;;;;;;;29.85;17.83;;;19.50;99.90;;;;;;5020915;28;20029;-59
2023/09/17 02:20:11;;;;;;;26.77;17.38;;;19.50;99.90;;;;;;5016655;28;20396;-57
2023/09/17 02:22:38;;;;;;;25.40;17.27;;;19.50;99.90;;;;;;5022027;28;20392;-60
2023/09/17 02:25:05;;;;;;;32.50;18.08;;;19.50;99.90;;;;;;5018292;28;20025;-60
2023/09/17 02:27:31;;;;;;;26.65;18.05;;;19.40;99.90;;;;;;5022797;28;20037;-58
2023/09/17 02:29:57;;;;;;;31.85;19.05;;;19.40;99.90;;;;;;5024841;28;20034;-58
2023/09/17 02:32:22;;;;;;;32.10;20.05;;;19.40;99.90;;;;;;5017818;28;20252;-59
2023/09/17 02:34:49;;;;;;;30.80;19.33;;;19.40;99.90;;;;;;5019223;28;20104;-58
2023/09/17 02:37:14;;;;;;;26.52;18.08;;;19.40;99.90;;;;;;5025693;28;20130;-54
2023/09/17 02:39:40;;;;;;;34.13;19.33;;;19.50;99.90;;;;;;5019391;28;20431;-58
2023/09/17 02:42:05;;;;;;;27.73;18.80;;;19.50;99.90;;;;;;5025471;28;20029;-59
2023/09/17 02:44:31;;;;;;;33.47;20.13;;;19.50;99.90;;;;;;5022510;28;20471;-58
2023/09/17 02:46:56;;;;;;;36.80;20.50;;;19.50;99.90;;;;;;5023299;28;20032;-56
2023/09/17 02:49:22;;;;;;;31.70;20.27;;;19.50;99.90;;;;;;5027279;28;20045;-57
2023/09/17 02:51:50;;;;;;;26.50;18.55;;;19.50;99.90;;;;;;5033240;28;20425;-60
2023/09/17 02:54:15;;;;;;;31.52;19.65;;;19.50;99.90;;;;;;5017217;28;20539;-58
2023/09/17 02:56:42;;;;;;;29.77;20.63;;;19.50;99.90;;;;;;5033462;28;20121;-60
2023/09/17 02:59:07;;;;;;;28.98;18.30;;;19.50;99.90;;;;;;5022778;28;20400;-61
2023/09/17 03:01:35;;;;;;;30.52;19.85;;;19.50;99.90;;;;;;5020300;28;20033;-60
2023/09/17 03:04:01;;;;;;;30.58;19.20;;;19.50;99.90;;;;;;5016621;28;20041;-59
2023/09/17 03:06:26;;;;;;;32.63;20.00;;;19.50;99.90;;;;;;5024962;28;20041;-57
2023/09/17 03:08:52;;;;;;;27.88;19.13;;;19.50;99.90;;;;;;5024436;28;20025;-61
2023/09/17 03:11:17;;;;;;;28.70;19.35;;;19.50;99.90;;;;;;5030604;28;20026;-57
2023/09/17 03:13:47;;;;;;;30.58;20.67;;;19.50;99.90;;;;;;5017259;28;20033;-61
2023/09/17 03:16:15;;;;;;;33.83;18.40;;;19.50;99.90;;;;;;5023063;28;20041;-61
2023/09/17 03:18:43;;;;;;;28.23;17.90;;;19.50;99.90;;;;;;5027487;28;20033;-58
2023/09/17 03:21:09;;;;;;;28.70;19.38;;;19.50;99.90;;;;;;5024301;28;20026;-59
2023/09/17 03:23:35;;;;;;;31.23;20.65;;;19.40;99.90;;;;;;5025857;28;20028;-59
2023/09/17 03:26:03;;;;;;;31.73;20.45;;;19.40;99.90;;;;;;5029565;28;20029;-59
2023/09/17 03:28:29;;;;;;;32.80;20.20;;;19.40;99.90;;;;;;5024665;28;20025;-59
2023/09/17 03:30:55;;;;;;;28.58;20.10;;;19.40;99.90;;;;;;5028241;28;20034;-61
2023/09/17 03:33:22;;;;;;;31.48;21.00;;;19.40;99.90;;;;;;5016903;28;20033;-60
2023/09/17 03:35:47;;;;;;;30.73;20.35;;;19.40;99.90;;;;;;5030883;28;20025;-58
2023/09/17 03:38:13;;;;;;;31.20;20.33;;;19.40;99.90;;;;;;5036116;28;20025;-60
2023/09/17 03:40:39;;;;;;;29.00;19.77;;;19.30;99.90;;;;;;5029655;28;20486;-59
2023/09/17 03:43:06;;;;;;;28.48;20.70;;;19.40;99.90;;;;;;5025943;28;20067;-58
2023/09/17 03:45:31;;;;;;;29.00;20.33;;;19.40;99.90;;;;;;5025476;28;20018;-59
2023/09/17 03:47:57;;;;;;;32.45;18.40;;;19.40;99.90;;;;;;5020382;28;20068;-60
2023/09/17 03:50:23;;;;;;;32.85;20.15;;;19.40;99.90;;;;;;5026181;28;20112;-61
2023/09/17 03:52:52;;;;;;;32.58;20.42;;;19.40;99.90;;;;;;5021854;28;20088;-58
2023/09/17 03:55:18;;;;;;;31.60;19.23;;;19.40;99.90;;;;;;5026740;28;20069;-61
2023/09/17 03:57:44;;;;;;;26.35;18.30;;;19.40;99.90;;;;;;5038084;28;20480;-57
2023/09/17 04:00:11;;;;;;;33.53;20.58;;;19.30;99.90;;;;;;5020995;28;20033;-59
2023/09/17 04:02:41;;;;;;;33.70;19.13;;;19.30;99.90;;;;;;5022769;28;20112;-60
2023/09/17 04:05:13;;;;;;;31.13;19.48;;;19.30;99.90;;;;;;5021405;28;20080;-59
2023/09/17 04:07:41;;;;;;;30.83;20.30;;;19.20;99.90;;;;;;5031427;28;20021;-61
2023/09/17 04:10:07;;;;;;;28.60;20.23;;;19.20;99.90;;;;;;5030805;28;20085;-57
2023/09/17 04:12:34;;;;;;;27.10;17.52;;;19.20;99.90;;;;;;5036307;28;20022;-59
2023/09/17 04:15:00;;;;;;;28.73;19.73;;;19.20;99.90;;;;;;5028544;28;20082;-54
2023/09/17 04:17:25;;;;;;;30.45;19.08;;;19.20;99.90;;;;;;5025579;28;20029;-57
2023/09/17 04:19:52;;;;;;;30.83;18.63;;;19.20;99.90;;;;;;5024306;28;20099;-57
2023/09/17 04:22:18;;;;;;;28.08;19.23;;;19.20;99.90;;;;;;5016281;28;20101;-59
2023/09/17 04:24:44;;;;;;;32.65;20.00;;;19.10;99.90;;;;;;5021232;28;20109;-59
2023/09/17 04:27:11;;;;;;;34.88;19.05;;;19.10;99.90;;;;;;5025223;28;20430;-56
2023/09/17 04:29:37;;;;;;;30.00;19.45;;;19.10;99.90;;;;;;5028962;28;20063;-60
2023/09/17 04:32:03;;;;;;;29.45;17.77;;;19.10;99.90;;;;;;5021793;28;20045;-60
2023/09/17 04:34:29;;;;;;;28.75;19.02;;;19.10;99.90;;;;;;5028356;28;20147;-58
2023/09/17 04:36:57;;;;;;;26.08;18.67;;;19.10;99.90;;;;;;5022104;28;20048;-57
2023/09/17 04:39:22;;;;;;;28.17;18.40;;;19.00;99.90;;;;;;5023931;28;20051;-60
2023/09/17 04:41:48;;;;;;;25.98;18.50;;;19.00;99.90;;;;;;5028248;28;22072;-58
2023/09/17 04:44:14;;;;;;;33.83;20.13;;;18.90;99.90;;;;;;5024819;28;20044;-61
2023/09/17 04:46:40;;;;;;;30.48;19.80;;;18.90;99.90;;;;;;5024841;28;20049;-60
2023/09/17 04:49:06;;;;;;;31.70;20.20;;;18.90;99.90;;;;;;5015114;28;20036;-57
2023/09/17 04:51:33;;;;;;;25.30;16.95;;;18.90;99.90;;;;;;5027206;28;20037;-59
2023/09/17 04:53:59;;;;;;;26.50;18.13;;;18.90;99.90;;;;;;5025892;28;20067;-58
2023/09/17 04:56:24;;;;;;;30.83;19.17;;;18.90;99.90;;;;;;5021647;28;20049;-57
2023/09/17 04:58:50;;;;;;;26.10;17.38;;;18.80;99.90;;;;;;5027859;28;20028;-55
2023/09/17 05:01:16;;;;;;;30.95;18.13;;;18.80;99.90;;;;;;5022501;28;20034;-57
2023/09/17 05:03:46;;;;;;;27.42;18.08;;;18.80;99.90;;;;;;5028074;28;20040;-59
2023/09/17 05:06:12;;;;;;;33.40;18.83;;;18.90;99.90;;;;;;5022146;28;20018;-55
2023/09/17 05:08:38;;;;;;;31.50;19.23;;;18.80;99.90;;;;;;5021774;28;20187;-58
2023/09/17 05:11:05;;;;;;;34.42;20.10;;;18.80;99.90;;;;;;5028790;28;20499;-57
2023/09/17 05:13:31;;;;;;;31.15;18.95;;;18.80;99.90;;;;;;5026800;28;20115;-61
2023/09/17 05:15:56;;;;;;;32.70;20.58;;;18.80;99.90;;;;;;5021211;28;20033;-60
2023/09/17 05:18:22;;;;;;;32.03;19.83;;;18.80;99.90;;;;;;5028550;28;20180;-59
2023/09/17 05:20:48;;;;;;;35.25;19.60;;;18.70;99.90;;;;;;5022803;28;20026;-59
2023/09/17 05:23:14;;;;;;;31.73;19.20;;;18.70;99.90;;;;;;5027511;28;20499;-60
2023/09/17 05:25:40;;;;;;;35.63;20.83;;;18.70;99.90;;;;;;5022857;28;20514;-59
2023/09/17 05:28:08;;;;;;;30.58;19.95;;;18.70;99.90;;;;;;5019986;28;20030;-60
2023/09/17 05:30:34;;;;;;;26.63;19.40;;;18.70;99.90;;;;;;5016763;28;20041;-57
2023/09/17 05:33:00;;;;;;;28.88;17.45;;;18.70;99.90;;;;;;5028727;28;20025;-57
2023/09/17 05:35:25;;;;;;;28.77;19.45;;;18.70;99.90;;;;;;5024391;28;20087;-59
2023/09/17 05:37:51;;;;;;;30.40;19.65;;;18.70;99.90;;;;;;5029940;28;20114;-59
2023/09/17 05:40:16;;;;;;;25.92;17.25;;;18.70;99.90;;;;;;5024991;28;20102;-56
2023/09/17 05:42:43;;;;;;;28.08;19.02;;;18.70;99.90;;;;;;5026999;28;20534;-60
2023/09/17 05:45:09;;;;;;;30.10;17.70;;;18.70;99.90;;;;;;5021970;28;20029;-58
2023/09/17 05:47:34;;;;;;;28.95;19.13;;;18.70;99.90;;;;;;5028961;28;20460;-57
2023/09/17 05:50:00;;;;;;;32.03;21.25;;;18.70;99.90;;;;;;5023144;28;20038;-58
2023/09/17 05:52:25;;;;;;;29.50;18.63;;;18.70;99.90;;;;;;5019953;28;20389;-58
2023/09/17 05:54:51;;;;;;;34.58;20.27;;;18.70;99.90;;;;;;5020911;28;20037;-59
2023/09/17 05:57:17;;;;;;;38.15;22.30;;;18.70;99.90;;;;;;5020304;28;20069;-61
2023/09/17 05:59:43;;;;;;;28.08;19.40;;;18.70;99.90;;;;;;5018132;28;20038;-60
2023/09/17 06:02:11;;;;;;;34.85;22.05;;;18.70;99.90;;;;;;5025035;28;20527;-59
2023/09/17 06:04:37;;;;;;;35.60;21.88;;;18.70;99.90;;;;;;5022758;28;20372;-57
2023/09/17 06:07:03;;;;;;;31.67;21.67;;;18.70;99.90;;;;;;5025992;28;20075;-60
2023/09/17 06:09:29;;;;;;;29.92;20.70;;;18.70;99.90;;;;;;5022451;28;20029;-58
2023/09/17 06:11:56;;;;;;;32.05;19.73;;;18.70;99.90;;;;;;5020838;28;20498;-58
2023/09/17 06:14:22;;;;;;;37.10;22.13;;;18.70;99.90;;;;;;5028207;28;20032;-60
2023/09/17 06:16:47;;;;;;;40.33;21.45;;;18.70;99.90;;;;;;5016620;28;20026;-57
2023/09/17 06:19:14;;;;;;;30.40;20.67;;;18.70;99.90;;;;;;5017591;28;20037;-58
2023/09/17 06:21:40;;;;;;;29.27;19.42;;;18.70;99.90;;;;;;5023115;28;20021;-57
2023/09/17 06:24:06;;;;;;;30.17;21.00;;;18.80;99.90;;;;;;5021159;28;20053;-61
2023/09/17 06:26:32;;;;;;;33.42;22.02;;;18.80;99.90;;;;;;5022802;28;20123;-58
2023/09/17 06:28:58;;;;;;;32.70;19.90;;;18.80;99.90;;;;;;5021177;28;20380;-60
2023/09/17 06:31:24;;;;;;;30.40;19.20;;;18.90;99.90;;;;;;5019632;28;20057;-58
2023/09/17 06:33:51;;;;;;;28.17;20.27;;;18.90;99.90;;;;;;5018939;28;20041;-59
2023/09/17 06:36:16;;;;;;;27.05;19.33;;;19.00;99.90;;;;;;5023931;28;20029;-58
2023/09/17 06:38:42;;;;;;;27.75;19.40;;;19.00;99.90;;;;;;5021224;28;20476;-58
2023/09/17 06:41:07;;;;;;;29.70;19.90;;;19.00;99.90;;;;;;5021902;28;20526;-60
2023/09/17 06:43:33;;;;;;;27.45;18.70;;;19.10;99.90;;;;;;5020556;28;20492;-61
2023/09/17 06:45:59;;;;;;;27.15;15.93;;;19.20;99.90;;;;;;5022925;28;20033;-58
2023/09/17 06:48:25;;;;;;;27.60;19.88;;;19.20;99.90;;;;;;5023973;28;20032;-59
2023/09/17 06:50:51;;;;;;;30.35;18.70;;;19.30;99.90;;;;;;5019205;28;20522;-54
2023/09/17 06:53:17;;;;;;;29.55;18.77;;;19.30;99.90;;;;;;5017569;28;20033;-56
2023/09/17 06:55:42;;;;;;;27.80;16.98;;;19.40;99.90;;;;;;5025570;28;20040;-57
2023/09/17 06:58:08;;;;;;;25.80;16.77;;;19.40;99.90;;;;;;5024599;28;20032;-58
2023/09/17 07:00:35;;;;;;;21.90;15.25;;;19.40;99.90;;;;;;5024345;28;20091;-58
2023/09/17 07:03:01;;;;;;;27.67;16.13;;;19.50;99.90;;;;;;5026503;28;20022;-54
2023/09/17 07:05:27;;;;;;;25.67;14.48;;;19.60;99.90;;;;;;5029356;28;20017;-54
2023/09/17 07:07:53;;;;;;;19.63;14.13;;;19.60;99.90;;;;;;5028837;28;20109;-55
2023/09/17 07:10:18;;;;;;;17.50;12.88;;;19.60;99.90;;;;;;5025034;28;20029;-57
2023/09/17 07:12:44;;;;;;;16.23;12.20;;;19.60;99.90;;;;;;5029427;28;20034;-59
2023/09/17 07:15:11;;;;;;;18.73;11.85;;;19.60;99.90;;;;;;5030157;28;20035;-58
2023/09/17 07:17:38;;;;;;;15.38;10.73;;;19.70;99.90;;;;;;5025461;28;20406;-58
2023/09/17 07:20:05;;;;;;;14.90;9.55;;;19.70;99.90;;;;;;5032748;28;20048;-55
2023/09/17 07:22:31;;;;;;;12.43;10.27;;;19.80;99.90;;;;;;5028926;28;20641;-60
2023/09/17 07:24:58;;;;;;;18.00;11.10;;;19.80;99.90;;;;;;5024341;28;20034;-59
2023/09/17 07:27:26;;;;;;;18.73;10.32;;;19.90;99.90;;;;;;5024978;28;20400;-57
2023/09/17 07:29:52;;;;;;;12.38;8.80;;;19.90;99.90;;;;;;5028737;28;20018;-61
2023/09/17 07:32:18;;;;;;;14.05;8.70;;;19.90;99.90;;;;;;5025988;28;20025;-60
2023/09/17 07:34:43;;;;;;;12.38;8.93;;;19.90;99.90;;;;;;5030943;28;20026;-59
2023/09/17 07:37:09;;;;;;;12.57;8.93;;;20.00;99.90;;;;;;5028511;28;20037;-58
2023/09/17 07:39:34;;;;;;;14.80;8.90;;;20.00;99.90;;;;;;5025344;28;20034;-58
2023/09/17 07:42:00;;;;;;;15.65;9.30;;;20.10;99.90;;;;;;5027903;28;20424;-59
2023/09/17 07:44:25;;;;;;;14.55;9.07;;;20.10;99.90;;;;;;5029850;28;20026;-57
2023/09/17 07:46:51;;;;;;;11.82;9.15;;;20.20;99.90;;;;;;5026038;28;20032;-57
2023/09/17 07:49:17;;;;;;;14.85;8.52;;;20.20;99.90;;;;;;5024747;28;20083;-57
2023/09/17 07:51:43;;;;;;;19.85;11.20;;;20.30;99.90;;;;;;5025264;28;20029;-61
2023/09/17 07:54:09;;;;;;;12.73;8.85;;;20.30;99.90;;;;;;5023572;28;20498;-54
2023/09/17 07:56:34;;;;;;;12.00;8.77;;;20.50;99.90;;;;;;5025706;28;20636;-58
2023/09/17 07:59:00;;;;;;;11.80;9.00;;;20.50;99.90;;;;;;5027834;28;20104;-55
2023/09/17 08:01:25;;;;;;;14.80;8.40;;;20.60;99.90;;;;;;5028517;28;20470;-59
2023/09/17 08:03:51;;;;;;;11.70;7.45;;;20.70;99.90;;;;;;5021859;28;20026;-60
2023/09/17 08:06:16;;;;;;;8.65;6.65;;;20.80;99.90;;;;;;5022794;28;20033;-58
2023/09/17 08:08:45;;;;;;;12.40;7.75;;;20.90;99.90;;;;;;5017479;28;20037;-61
2023/09/17 08:11:14;;;;;;;11.35;7.30;;;21.00;99.90;;;;;;5016883;28;20431;-60
2023/09/17 08:13:40;;;;;;;10.63;6.80;;;21.00;99.90;;;;;;5020001;28;20439;-57
2023/09/17 08:16:06;;;;;;;10.27;5.68;;;21.10;99.90;;;;;;5021195;28;20061;-60
2023/09/17 08:18:31;;;;;;;10.23;6.15;;;21.20;99.90;;;;;;5026653;28;20069;-58
2023/09/17 08:20:57;;;;;;;9.05;5.55;;;21.20;99.90;;;;;;5025107;28;20034;-61
2023/09/17 08:23:23;;;;;;;9.77;5.00;;;21.30;99.90;;;;;;5024565;28;20037;-59
2023/09/17 08:25:50;;;;;;;8.63;5.75;;;21.30;99.90;;;;;;5023200;28;20038;-57
2023/09/17 08:28:16;;;;;;;9.48;5.28;;;21.40;99.90;;;;;;5031050;28;20167;-56
2023/09/17 08:30:41;;;;;;;7.90;5.63;;;21.40;99.90;;;;;;5024962;28;20141;-54
2023/09/17 08:33:09;;;;;;;7.28;5.47;;;21.50;99.90;;;;;;5023178;28;20025;-60
2023/09/17 08:35:35;;;;;;;8.75;5.65;;;21.50;99.90;;;;;;5020744;28;20029;-60
2023/09/17 08:38:01;;;;;;;7.50;5.20;;;21.60;99.90;;;;;;5023954;28;20099;-61
2023/09/17 08:40:27;;;;;;;9.13;5.13;;;21.80;99.90;;;;;;5022503;28;20673;-59
2023/09/17 08:42:54;;;;;;;7.32;5.50;;;21.90;99.90;;;;;;5024671;28;20038;-60
2023/09/17 08:45:21;;;;;;;5.07;4.57;;;21.90;99.90;;;;;;5034921;28;20036;-59
2023/09/17 08:47:47;;;;;;;8.27;4.70;;;22.00;99.90;;;;;;5026410;28;20036;-56
2023/09/17 08:50:12;;;;;;;11.32;6.03;;;22.00;99.90;;;;;;5019718;28;20022;-58
2023/09/17 08:52:42;;;;;;;6.95;5.38;;;22.10;99.90;;;;;;5024321;28;20407;-61
2023/09/17 08:55:09;;;;;;;13.43;5.70;;;22.10;99.90;;;;;;5019558;28;20029;-54
2023/09/17 08:57:38;;;;;;;7.20;4.72;;;22.20;99.90;;;;;;5025385;28;20103;-55
2023/09/17 09:00:09;;;;;;;9.85;5.15;;;22.10;99.90;;;;;;5022681;28;20032;-53
2023/09/17 09:02:47;;;;;;;7.93;5.32;;;22.20;99.90;;;;;;5019221;28;20021;-60
2023/09/17 09:05:14;;;;;;;8.20;4.45;;;22.40;99.90;;;;;;5017042;28;20025;-61
2023/09/17 09:07:42;;;;;;;7.70;5.10;;;22.50;99.90;;;;;;5025349;28;20120;-58
2023/09/17 09:10:08;;;;;;;10.45;4.93;;;22.60;99.90;;;;;;5020207;28;20065;-58
2023/09/17 09:12:34;;;;;;;7.95;4.88;;;22.80;99.90;;;;;;5021730;28;20034;-61
2023/09/17 09:15:00;;;;;;;5.25;4.60;;;22.90;99.90;;;;;;5022034;28;20075;-60
2023/09/17 09:17:26;;;;;;;9.27;4.93;;;23.00;99.90;;;;;;5016078;28;20561;-59
2023/09/17 09:19:52;;;;;;;6.43;4.85;;;23.00;99.90;;;;;;5021314;28;20405;-56
2023/09/17 09:22:18;;;;;;;6.95;4.43;;;23.10;99.90;;;;;;5022160;28;20025;-58
2023/09/17 09:24:48;;;;;;;6.20;5.30;;;23.20;99.90;;;;;;5029581;28;20105;-58
2023/09/17 09:27:14;;;;;;;10.85;5.07;;;23.40;99.90;;;;;;5027757;28;20464;-59
2023/09/17 09:29:42;;;;;;;5.75;4.70;;;23.50;99.90;;;;;;5024465;28;20033;-60
2023/09/17 09:32:09;;;;;;;9.43;4.50;;;23.60;99.90;;;;;;5028392;28;20095;-59
2023/09/17 09:34:42;;;;;;;5.85;4.22;;;23.60;99.90;;;;;;5023593;28;20388;-59
2023/09/17 09:37:09;;;;;;;6.15;4.80;;;23.70;99.90;;;;;;5033609;28;20471;-57
2023/09/17 09:39:35;;;;;;;7.20;4.80;;;23.90;99.90;;;;;;5025335;28;20041;-62
2023/09/17 09:42:03;;;;;;;7.20;4.45;;;24.00;99.90;;;;;;5026181;28;20880;-59
2023/09/17 09:44:30;;;;;;;5.78;4.20;;;24.20;99.90;;;;;;5030025;28;20017;-60
2023/09/17 09:46:57;;;;;;;7.03;4.57;;;24.30;99.90;;;;;;5024155;28;20032;-59
2023/09/17 09:49:24;;;;;;;6.28;4.38;;;24.40;99.90;;;;;;5027522;28;20033;-59
2023/09/17 09:51:50;;;;;;;6.57;4.38;;;24.50;99.90;;;;;;5031843;28;20487;-60
2023/09/17 09:54:15;;;;;;;7.25;4.03;;;24.60;99.90;;;;;;5034344;28;20025;-60
2023/09/17 09:56:41;;;;;;;6.20;4.25;;;24.80;99.90;;;;;;5021224;28;20635;-59
2023/09/17 09:59:07;;;;;;;4.93;4.07;;;24.80;99.90;;;;;;5028746;28;20463;-61
2023/09/17 10:01:36;;;;;;;9.40;4.07;;;24.90;99.90;;;;;;5023349;28;20033;-52
2023/09/17 10:04:07;;;;;;;6.10;3.47;;;24.80;99.90;;;;;;5032047;28;20117;-61
2023/09/17 10:06:35;;;;;;;7.13;3.72;;;25.10;99.90;;;;;;5032530;28;20029;-61
2023/09/17 10:09:02;;;;;;;7.00;4.07;;;25.20;99.90;;;;;;5030934;28;20029;-59
2023/09/17 10:11:30;;;;;;;4.15;3.60;;;25.20;99.90;;;;;;5028906;28;20448;-56
2023/09/17 10:14:07;;;;;;;11.07;3.95;;;25.30;99.90;;;;;;5030133;28;20112;-53
2023/09/17 10:16:34;;;;;;;5.35;3.45;;;25.50;99.90;;;;;;5025590;28;20415;-60
2023/09/17 10:19:00;;;;;;;8.10;3.65;;;25.70;99.90;;;;;;5026121;28;20026;-60
2023/09/17 10:21:27;;;;;;;5.97;3.33;;;25.80;99.90;;;;;;5029184;28;20542;-61
2023/09/17 10:23:57;;;;;;;5.28;3.50;;;25.70;99.90;;;;;;5025872;28;20040;-60
2023/09/17 10:26:24;;;;;;;8.43;3.67;;;25.80;99.90;;;;;;5025613;28;20025;-58
2023/09/17 10:28:54;;;;;;;6.97;3.90;;;26.10;99.90;;;;;;5025393;28;20026;-59
2023/09/17 10:31:22;;;;;;;9.05;4.03;;;26.30;99.90;;;;;;5028213;28;20101;-61
2023/09/17 10:33:49;;;;;;;6.43;3.58;;;26.50;99.90;;;;;;5027519;28;20057;-60
2023/09/17 10:36:16;;;;;;;5.32;3.10;;;26.40;99.90;;;;;;5038861;28;20479;-59
2023/09/17 10:38:43;;;;;;;12.15;3.83;;;26.70;99.90;;;;;;5024107;28;20057;-61
2023/09/17 10:41:10;;;;;;;4.28;3.70;;;26.70;99.90;;;;;;5022485;28;20013;-56
2023/09/17 10:43:36;;;;;;;4.50;3.03;;;27.00;99.90;;;;;;5023222;28;20049;-60
2023/09/17 10:46:05;;;;;;;5.72;3.00;;;26.70;99.90;;;;;;5018791;28;20026;-60
2023/09/17 10:48:32;;;;;;;4.22;3.08;;;26.70;99.90;;;;;;5022978;28;20480;-59
2023/09/17 10:50:58;;;;;;;6.95;4.20;;;26.70;99.90;;;;;;5027155;28;20025;-58
2023/09/17 10:53:28;;;;;;;5.65;3.00;;;26.70;99.90;;;;;;5030314;28;20387;-59
2023/09/17 10:56:03;;;;;;;3.60;3.22;;;26.80;99.90;;;;;;5029057;28;20060;-58
2023/09/17 10:58:42;;;;;;;6.57;3.10;;;26.90;99.90;;;;;;5021659;28;20483;-60
2023/09/17 11:01:12;;;;;;;14.32;3.55;;;27.10;99.90;;;;;;5025501;28;20050;-60
2023/09/17 11:03:51;;;;;;;7.30;2.58;;;27.20;99.90;;;;;;5025334;28;20049;-61
2023/09/17 11:06:23;;;;;;;4.93;2.95;;;27.40;99.90;;;;;;5027983;28;20369;-60
2023/09/17 11:08:51;;;;;;;7.88;2.80;;;27.50;99.90;;;;;;5027384;28;20029;-55
2023/09/17 11:11:18;;;;;;;3.33;2.50;;;27.40;99.90;;;;;;5025861;28;20066;-57
2023/09/17 11:13:46;;;;;;;6.47;2.45;;;27.50;99.90;;;;;;5023885;28;20033;-59
2023/09/17 11:16:18;;;;;;;3.30;2.60;;;27.60;99.90;;;;;;5025907;28;20510;-58
2023/09/17 11:19:03;;;;;;;3.53;2.38;;;27.80;99.90;;;;;;5028806;28;20071;-57
2023/09/17 11:21:28;;;;;;;17.33;3.08;;;27.40;99.90;;;;;;5025222;28;20030;-58
2023/09/17 11:23:55;;;;;;;3.05;2.33;;;27.60;99.90;;;;;;5024645;28;20457;-58
2023/09/17 11:26:26;;;;;;;3.15;2.63;;;27.60;99.90;;;;;;5020442;28;20116;-57
2023/09/17 11:28:55;;;;;;;4.45;2.53;;;28.00;99.90;;;;;;5019638;28;20025;-58
2023/09/17 11:31:22;;;;;;;4.05;2.75;;;28.00;99.90;;;;;;5019662;28;20026;-59
2023/09/17 11:33:48;;;;;;;5.93;2.60;;;28.10;99.90;;;;;;5026572;28;20037;-55
2023/09/17 11:36:14;;;;;;;3.78;2.20;;;28.10;99.90;;;;;;5028254;28;20037;-59
2023/09/17 11:38:45;;;;;;;4.55;2.70;;;28.30;99.90;;;;;;5025552;28;20033;-59
2023/09/17 11:41:14;;;;;;;4.45;2.60;;;28.60;99.90;;;;;;5021255;28;20060;-60
2023/09/17 11:43:44;;;;;;;3.58;2.78;;;28.90;99.90;;;;;;5024031;28;20515;-55
2023/09/17 11:46:12;;;;;;;4.03;2.42;;;29.00;99.90;;;;;;5020020;28;20697;-59
2023/09/17 11:48:38;;;;;;;5.20;2.50;;;28.90;99.90;;;;;;5024359;28;20039;-56
2023/09/17 11:51:23;;;;;;;3.58;2.75;;;29.00;99.90;;;;;;5014274;28;20075;-59
2023/09/17 11:53:55;;;;;;;4.50;2.33;;;28.80;99.90;;;;;;5018135;28;20080;-59
2023/09/17 11:56:21;;;;;;;4.53;2.65;;;28.80;99.90;;;;;;5018981;28;20038;-57
2023/09/17 11:59:01;;;;;;;4.68;2.55;;;29.00;99.90;;;;;;5019870;28;20091;-57
2023/09/17 12:01:30;;;;;;;3.67;2.42;;;29.30;99.90;;;;;;5019235;28;20458;-56
2023/09/17 12:03:57;;;;;;;4.93;2.38;;;29.30;99.90;;;;;;5023132;28;20026;-59
2023/09/17 12:06:24;;;;;;;2.88;2.20;;;29.50;99.90;;;;;;5022435;28;21732;-56
2023/09/17 12:08:50;;;;;;;3.58;3.20;;;29.70;99.90;;;;;;5025132;28;20108;-56
2023/09/17 12:11:21;;;;;;;5.82;2.72;;;29.80;99.90;;;;;;5016149;28;20109;-58
2023/09/17 12:13:53;;;;;;;5.35;2.55;;;29.80;99.90;;;;;;5013522;28;20030;-59
2023/09/17 12:16:23;;;;;;;3.42;2.55;;;29.60;99.90;;;;;;5023243;28;20040;-57
2023/09/17 12:18:51;;;;;;;3.85;2.13;;;29.50;99.90;;;;;;5016042;28;20113;-59
2023/09/17 12:21:17;;;;;;;4.47;2.42;;;29.50;99.90;;;;;;5019017;28;20030;-60
2023/09/17 12:23:57;;;;;;;6.40;2.80;;;29.00;99.90;;;;;;5019315;28;20040;-60
2023/09/17 12:26:37;;;;;;;6.15;2.75;;;29.00;99.90;;;;;;5024377;28;20018;-62
2023/09/17 12:29:09;;;;;;;8.25;2.60;;;29.30;99.90;;;;;;5026760;28;20104;-60
2023/09/17 12:31:36;;;;;;;4.35;2.22;;;29.40;99.90;;;;;;5022301;28;20065;-55